sensor_id;sensor_type;location;lat;lon;timestamp;pressure;altitude;pressure_sealevel;temperature;humidity
19108;BME280;9686;48.832;9.126;2024-01-30T00:01:52;99534.22;;;3.71;100.00
19108;BME280;9686;48.832;9.126;2024-01-30T00:04:17;99539.50;;;3.55;100.00
19108;BME280;9686;48.832;9.126;2024-01-30T00:06:43;99534.97;;;3.50;100.00
19108;BME280;9686;48.832;9.126;2024-01-30T00:09:09;99534.22;;;3.52;100.00
19108;BME280;9686;48.832;9.126;2024-01-30T00:11:36;99535.19;;;3.54;100.00
19108;BME280;9686;48.832;9.126;2024-01-30T00:14:01;99537.00;;;3.57;100.00
19108;BME280;9686;48.832;9.126;2024-01-30T00:16:27;99532.09;;;3.63;100.00
19108;BME280;9686;48.832;9.126;2024-01-30T00:18:53;99534.00;;;3.67;100.00
19108;BME280;9686;48.832;9.126;2024-01-30T00:21:19;99529.88;;;3.51;100.00
19108;BME280;9686;48.832;9.126;2024-01-30T00:23:44;99540.31;;;3.74;100.00
19108;BME280;9686;48.832;9.126;2024-01-30T00:26:10;99536.38;;;3.62;100.00
19108;BME280;9686;48.832;9.126;2024-01-30T00:28:39;99536.78;;;3.71;100.00
19108;BME280;9686;48.832;9.126;2024-01-30T00:31:04;99541.41;;;3.59;100.00
19108;BME280;9686;48.832;9.126;2024-01-30T00:33:30;99540.53;;;3.59;100.00
19108;BME280;9686;48.832;9.126;2024-01-30T00:35:56;99539.13;;;3.65;100.00
19108;BME280;9686;48.832;9.126;2024-01-30T00:38:21;99544.28;;;3.65;100.00
19108;BME280;9686;48.832;9.126;2024-01-30T00:40:47;99538.34;;;3.68;100.00
19108;BME280;9686;48.832;9.126;2024-01-30T00:43:13;99545.34;;;3.70;100.00
19108;BME280;9686;48.832;9.126;2024-01-30T00:45:38;99540.19;;;3.70;100.00
19108;BME280;9686;48.832;9.126;2024-01-30T00:48:03;99543.19;;;3.81;100.00
19108;BME280;9686;48.832;9.126;2024-01-30T00:50:29;99542.16;;;3.97;100.00
19108;BME280;9686;48.832;9.126;2024-01-30T00:52:54;99532.66;;;3.96;100.00
19108;BME280;9686;48.832;9.126;2024-01-30T00:55:19;99540.88;;;4.08;100.00
19108;BME280;9686;48.832;9.126;2024-01-30T00:57:45;99534.09;;;4.10;100.00
19108;BME280;9686;48.832;9.126;2024-01-30T01:00:11;99546.69;;;4.02;100.00
19108;BME280;9686;48.832;9.126;2024-01-30T01:02:37;99538.94;;;4.02;100.00
19108;BME280;9686;48.832;9.126;2024-01-30T01:05:04;99536.53;;;4.07;100.00
19108;BME280;9686;48.832;9.126;2024-01-30T01:07:30;99545.91;;;4.05;100.00
19108;BME280;9686;48.832;9.126;2024-01-30T01:09:55;99540.31;;;4.15;100.00
19108;BME280;9686;48.832;9.126;2024-01-30T01:12:20;99538.19;;;4.05;100.00
19108;BME280;9686;48.832;9.126;2024-01-30T01:14:46;99527.56;;;4.18;100.00
19108;BME280;9686;48.832;9.126;2024-01-30T01:17:11;99542.69;;;4.11;100.00
19108;BME280;9686;48.832;9.126;2024-01-30T01:19:36;99540.47;;;3.97;100.00
19108;BME280;9686;48.832;9.126;2024-01-30T01:22:02;99536.88;;;3.94;100.00
19108;BME280;9686;48.832;9.126;2024-01-30T01:24:29;99539.13;;;4.07;100.00
19108;BME280;9686;48.832;9.126;2024-01-30T01:26:54;99546.97;;;3.89;100.00
19108;BME280;9686;48.832;9.126;2024-01-30T01:29:21;99548.59;;;3.66;100.00
19108;BME280;9686;48.832;9.126;2024-01-30T01:31:53;99545.56;;;3.56;100.00
19108;BME280;9686;48.832;9.126;2024-01-30T01:34:18;99541.03;;;3.50;100.00
19108;BME280;9686;48.832;9.126;2024-01-30T01:36:44;99543.53;;;3.49;100.00
19108;BME280;9686;48.832;9.126;2024-01-30T01:39:09;99539.59;;;3.37;100.00
19108;BME280;9686;48.832;9.126;2024-01-30T01:41:34;99538.00;;;3.39;100.00
19108;BME280;9686;48.832;9.126;2024-01-30T01:44:00;99541.09;;;3.52;100.00
19108;BME280;9686;48.832;9.126;2024-01-30T01:46:27;99539.00;;;3.43;100.00
19108;BME280;9686;48.832;9.126;2024-01-30T01:48:55;99549.50;;;3.48;100.00
19108;BME280;9686;48.832;9.126;2024-01-30T01:51:22;99546.84;;;3.65;100.00
19108;BME280;9686;48.832;9.126;2024-01-30T01:53:48;99545.78;;;3.41;100.00
19108;BME280;9686;48.832;9.126;2024-01-30T01:56:14;99537.69;;;3.53;100.00
19108;BME280;9686;48.832;9.126;2024-01-30T01:58:40;99530.84;;;3.34;100.00
19108;BME280;9686;48.832;9.126;2024-01-30T02:01:07;99538.63;;;3.35;100.00
19108;BME280;9686;48.832;9.126;2024-01-30T02:03:34;99536.41;;;3.24;100.00
19108;BME280;9686;48.832;9.126;2024-01-30T02:05:59;99537.38;;;3.26;100.00
19108;BME280;9686;48.832;9.126;2024-01-30T02:08:25;99539.06;;;3.25;100.00
19108;BME280;9686;48.832;9.126;2024-01-30T02:10:51;99542.91;;;3.35;100.00
19108;BME280;9686;48.832;9.126;2024-01-30T02:13:16;99540.38;;;3.16;100.00
19108;BME280;9686;48.832;9.126;2024-01-30T02:15:41;99544.88;;;3.02;100.00
19108;BME280;9686;48.832;9.126;2024-01-30T02:18:07;99543.72;;;2.95;100.00
19108;BME280;9686;48.832;9.126;2024-01-30T02:20:34;99549.69;;;2.94;100.00
19108;BME280;9686;48.832;9.126;2024-01-30T02:23:00;99554.00;;;3.13;100.00
19108;BME280;9686;48.832;9.126;2024-01-30T02:25:39;99549.16;;;3.21;100.00
19108;BME280;9686;48.832;9.126;2024-01-30T02:28:14;99544.41;;;3.30;100.00
19108;BME280;9686;48.832;9.126;2024-01-30T02:30:40;99545.81;;;3.04;100.00
19108;BME280;9686;48.832;9.126;2024-01-30T02:33:05;99548.75;;;2.92;100.00
19108;BME280;9686;48.832;9.126;2024-01-30T02:35:31;99554.16;;;2.98;100.00
19108;BME280;9686;48.832;9.126;2024-01-30T02:37:56;99554.03;;;2.95;100.00
19108;BME280;9686;48.832;9.126;2024-01-30T02:40:22;99551.31;;;2.92;100.00
19108;BME280;9686;48.832;9.126;2024-01-30T02:42:47;99552.47;;;2.99;100.00
19108;BME280;9686;48.832;9.126;2024-01-30T02:45:13;99550.44;;;2.92;100.00
19108;BME280;9686;48.832;9.126;2024-01-30T02:47:39;99554.81;;;2.75;100.00
19108;BME280;9686;48.832;9.126;2024-01-30T02:50:04;99548.44;;;2.86;100.00
19108;BME280;9686;48.832;9.126;2024-01-30T02:52:30;99553.28;;;2.98;100.00
19108;BME280;9686;48.832;9.126;2024-01-30T02:54:55;99545.00;;;3.05;100.00
19108;BME280;9686;48.832;9.126;2024-01-30T02:57:20;99543.59;;;3.12;100.00
19108;BME280;9686;48.832;9.126;2024-01-30T02:59:46;99551.56;;;3.16;100.00
19108;BME280;9686;48.832;9.126;2024-01-30T03:02:11;99548.75;;;3.12;100.00
19108;BME280;9686;48.832;9.126;2024-01-30T03:04:36;99548.44;;;2.86;100.00
19108;BME280;9686;48.832;9.126;2024-01-30T03:07:01;99542.59;;;2.71;100.00
19108;BME280;9686;48.832;9.126;2024-01-30T03:09:27;99542.66;;;2.72;100.00
19108;BME280;9686;48.832;9.126;2024-01-30T03:11:52;99540.78;;;2.68;100.00
19108;BME280;9686;48.832;9.126;2024-01-30T03:14:17;99546.28;;;2.58;100.00
19108;BME280;9686;48.832;9.126;2024-01-30T03:16:43;99547.16;;;2.59;100.00
19108;BME280;9686;48.832;9.126;2024-01-30T03:19:08;99548.16;;;2.61;100.00
19108;BME280;9686;48.832;9.126;2024-01-30T03:21:34;99552.75;;;2.68;100.00
19108;BME280;9686;48.832;9.126;2024-01-30T03:24:00;99546.53;;;2.63;100.00
19108;BME280;9686;48.832;9.126;2024-01-30T03:26:25;99543.44;;;2.52;100.00
19108;BME280;9686;48.832;9.126;2024-01-30T03:28:50;99542.00;;;2.76;100.00
19108;BME280;9686;48.832;9.126;2024-01-30T03:31:16;99549.66;;;2.57;100.00
19108;BME280;9686;48.832;9.126;2024-01-30T03:33:42;99547.63;;;2.50;100.00
19108;BME280;9686;48.832;9.126;2024-01-30T03:36:08;99548.50;;;2.51;100.00
19108;BME280;9686;48.832;9.126;2024-01-30T03:38:33;99542.53;;;2.34;100.00
19108;BME280;9686;48.832;9.126;2024-01-30T03:40:59;99552.56;;;2.45;100.00
19108;BME280;9686;48.832;9.126;2024-01-30T03:43:24;99554.19;;;2.43;100.00
19108;BME280;9686;48.832;9.126;2024-01-30T03:45:50;99545.72;;;2.28;100.00
19108;BME280;9686;48.832;9.126;2024-01-30T03:48:15;99555.06;;;2.26;100.00
19108;BME280;9686;48.832;9.126;2024-01-30T03:50:40;99554.25;;;2.27;100.00
19108;BME280;9686;48.832;9.126;2024-01-30T03:53:06;99549.91;;;2.44;100.00
19108;BME280;9686;48.832;9.126;2024-01-30T03:55:31;99554.53;;;2.33;100.00
19108;BME280;9686;48.832;9.126;2024-01-30T03:57:56;99544.63;;;2.23;100.00
19108;BME280;9686;48.832;9.126;2024-01-30T04:00:22;99555.13;;;2.28;100.00
19108;BME280;9686;48.832;9.126;2024-01-30T04:02:47;99551.94;;;2.33;100.00
19108;BME280;9686;48.832;9.126;2024-01-30T04:05:12;99552.69;;;2.31;100.00
19108;BME280;9686;48.832;9.126;2024-01-30T04:07:38;99551.81;;;2.30;100.00
19108;BME280;9686;48.832;9.126;2024-01-30T04:10:03;99555.84;;;2.25;100.00
19108;BME280;9686;48.832;9.126;2024-01-30T04:12:31;99556.00;;;2.46;100.00
19108;BME280;9686;48.832;9.126;2024-01-30T04:14:56;99560.56;;;2.52;100.00
19108;BME280;9686;48.832;9.126;2024-01-30T04:17:21;99550.88;;;2.46;100.00
19108;BME280;9686;48.832;9.126;2024-01-30T04:19:47;99544.47;;;2.20;100.00
19108;BME280;9686;48.832;9.126;2024-01-30T04:22:12;99546.00;;;2.16;100.00
19108;BME280;9686;48.832;9.126;2024-01-30T04:24:37;99541.47;;;2.11;100.00
19108;BME280;9686;48.832;9.126;2024-01-30T04:27:03;99540.19;;;2.03;100.00
19108;BME280;9686;48.832;9.126;2024-01-30T04:29:28;99535.94;;;2.21;100.00
19108;BME280;9686;48.832;9.126;2024-01-30T04:31:53;99531.25;;;2.12;100.00
19108;BME280;9686;48.832;9.126;2024-01-30T04:34:19;99529.81;;;2.01;100.00
19108;BME280;9686;48.832;9.126;2024-01-30T04:36:44;99532.09;;;1.95;100.00
19108;BME280;9686;48.832;9.126;2024-01-30T04:39:10;99534.09;;;2.01;100.00
19108;BME280;9686;48.832;9.126;2024-01-30T04:41:36;99538.56;;;2.05;100.00
19108;BME280;9686;48.832;9.126;2024-01-30T04:44:01;99546.22;;;2.03;100.00
19108;BME280;9686;48.832;9.126;2024-01-30T04:46:26;99537.13;;;2.10;100.00
19108;BME280;9686;48.832;9.126;2024-01-30T04:48:51;99540.16;;;2.37;100.00
19108;BME280;9686;48.832;9.126;2024-01-30T04:51:17;99546.22;;;2.21;100.00
19108;BME280;9686;48.832;9.126;2024-01-30T04:53:42;99542.81;;;2.04;100.00
19108;BME280;9686;48.832;9.126;2024-01-30T04:56:07;99545.19;;;2.00;100.00
19108;BME280;9686;48.832;9.126;2024-01-30T04:58:33;99548.25;;;1.93;100.00
19108;BME280;9686;48.832;9.126;2024-01-30T05:00:58;99549.50;;;2.01;100.00
19108;BME280;9686;48.832;9.126;2024-01-30T05:03:23;99544.44;;;2.02;100.00
19108;BME280;9686;48.832;9.126;2024-01-30T05:05:49;99547.81;;;2.01;100.00
19108;BME280;9686;48.832;9.126;2024-01-30T05:08:14;99553.03;;;2.03;100.00
19108;BME280;9686;48.832;9.126;2024-01-30T05:10:40;99555.38;;;1.98;100.00
19108;BME280;9686;48.832;9.126;2024-01-30T05:13:05;99545.25;;;2.01;100.00
19108;BME280;9686;48.832;9.126;2024-01-30T05:15:30;99554.38;;;1.95;100.00
19108;BME280;9686;48.832;9.126;2024-01-30T05:17:56;99555.94;;;2.09;100.00
19108;BME280;9686;48.832;9.126;2024-01-30T05:20:21;99550.06;;;2.11;100.00
19108;BME280;9686;48.832;9.126;2024-01-30T05:22:46;99552.72;;;2.13;100.00
19108;BME280;9686;48.832;9.126;2024-01-30T05:25:12;99554.53;;;2.15;100.00
19108;BME280;9686;48.832;9.126;2024-01-30T05:27:38;99548.03;;;2.06;100.00
19108;BME280;9686;48.832;9.126;2024-01-30T05:30:05;99551.91;;;2.14;100.00
19108;BME280;9686;48.832;9.126;2024-01-30T05:32:31;99559.03;;;2.20;100.00
19108;BME280;9686;48.832;9.126;2024-01-30T05:34:56;99544.91;;;2.11;100.00
19108;BME280;9686;48.832;9.126;2024-01-30T05:37:22;99552.22;;;2.04;100.00
19108;BME280;9686;48.832;9.126;2024-01-30T05:39:47;99559.66;;;1.98;100.00
19108;BME280;9686;48.832;9.126;2024-01-30T05:42:12;99554.06;;;2.06;100.00
19108;BME280;9686;48.832;9.126;2024-01-30T05:44:37;99557.84;;;2.13;100.00
19108;BME280;9686;48.832;9.126;2024-01-30T05:47:03;99559.84;;;2.19;100.00
19108;BME280;9686;48.832;9.126;2024-01-30T05:49:28;99559.31;;;2.26;100.00
19108;BME280;9686;48.832;9.126;2024-01-30T05:51:53;99561.22;;;2.30;100.00
19108;BME280;9686;48.832;9.126;2024-01-30T05:54:19;99560.19;;;2.26;100.00
19108;BME280;9686;48.832;9.126;2024-01-30T05:56:44;99565.00;;;2.36;100.00
19108;BME280;9686;48.832;9.126;2024-01-30T05:59:09;99563.78;;;2.30;100.00
19108;BME280;9686;48.832;9.126;2024-01-30T06:01:35;99564.59;;;2.29;100.00
19108;BME280;9686;48.832;9.126;2024-01-30T06:04:01;99570.19;;;2.20;100.00
19108;BME280;9686;48.832;9.126;2024-01-30T06:06:26;99570.34;;;2.41;100.00
19108;BME280;9686;48.832;9.126;2024-01-30T06:08:52;99568.06;;;2.29;100.00
19108;BME280;9686;48.832;9.126;2024-01-30T06:11:17;99563.13;;;2.34;100.00
19108;BME280;9686;48.832;9.126;2024-01-30T06:13:42;99564.25;;;2.39;100.00
19108;BME280;9686;48.832;9.126;2024-01-30T06:16:11;99561.91;;;2.43;100.00
19108;BME280;9686;48.832;9.126;2024-01-30T06:18:36;99568.28;;;2.52;100.00
19108;BME280;9686;48.832;9.126;2024-01-30T06:21:02;99572.63;;;2.53;100.00
19108;BME280;9686;48.832;9.126;2024-01-30T06:23:27;99570.84;;;2.69;100.00
19108;BME280;9686;48.832;9.126;2024-01-30T06:25:52;99565.03;;;2.56;100.00
19108;BME280;9686;48.832;9.126;2024-01-30T06:28:18;99567.13;;;2.45;100.00
19108;BME280;9686;48.832;9.126;2024-01-30T06:30:43;99573.16;;;2.45;100.00
19108;BME280;9686;48.832;9.126;2024-01-30T06:33:10;99572.47;;;2.50;100.00
19108;BME280;9686;48.832;9.126;2024-01-30T06:35:36;99571.91;;;2.37;100.00
19108;BME280;9686;48.832;9.126;2024-01-30T06:38:04;99567.91;;;2.26;100.00
19108;BME280;9686;48.832;9.126;2024-01-30T06:40:30;99574.81;;;2.27;100.00
19108;BME280;9686;48.832;9.126;2024-01-30T06:42:55;99571.66;;;2.33;100.00
19108;BME280;9686;48.832;9.126;2024-01-30T06:45:20;99575.50;;;2.41;100.00
19108;BME280;9686;48.832;9.126;2024-01-30T06:47:46;99570.94;;;2.35;100.00
19108;BME280;9686;48.832;9.126;2024-01-30T06:50:11;99571.59;;;2.31;100.00
19108;BME280;9686;48.832;9.126;2024-01-30T06:52:36;99570.94;;;2.35;100.00
19108;BME280;9686;48.832;9.126;2024-01-30T06:55:02;99579.09;;;2.27;100.00
19108;BME280;9686;48.832;9.126;2024-01-30T06:57:28;99577.38;;;2.27;100.00
19108;BME280;9686;48.832;9.126;2024-01-30T06:59:54;99575.22;;;2.35;100.00
19108;BME280;9686;48.832;9.126;2024-01-30T07:02:20;99575.78;;;2.29;100.00
19108;BME280;9686;48.832;9.126;2024-01-30T07:04:45;99589.38;;;2.27;100.00
19108;BME280;9686;48.832;9.126;2024-01-30T07:07:10;99596.56;;;2.34;100.00
19108;BME280;9686;48.832;9.126;2024-01-30T07:09:38;99595.41;;;2.45;100.00
19108;BME280;9686;48.832;9.126;2024-01-30T07:12:04;99598.06;;;2.46;100.00
19108;BME280;9686;48.832;9.126;2024-01-30T07:14:29;99592.31;;;2.52;100.00
19108;BME280;9686;48.832;9.126;2024-01-30T07:16:54;99591.75;;;2.40;100.00
19108;BME280;9686;48.832;9.126;2024-01-30T07:19:19;99592.19;;;2.49;100.00
19108;BME280;9686;48.832;9.126;2024-01-30T07:21:45;99588.16;;;2.36;100.00
19108;BME280;9686;48.832;9.126;2024-01-30T07:24:11;99596.44;;;2.31;100.00
19108;BME280;9686;48.832;9.126;2024-01-30T07:26:37;99590.41;;;2.48;100.00
19108;BME280;9686;48.832;9.126;2024-01-30T07:29:02;99586.97;;;2.47;100.00
19108;BME280;9686;48.832;9.126;2024-01-30T07:31:28;99588.16;;;2.36;100.00
19108;BME280;9686;48.832;9.126;2024-01-30T07:33:54;99590.19;;;2.43;100.00
19108;BME280;9686;48.832;9.126;2024-01-30T07:36:20;99592.47;;;2.37;100.00
19108;BME280;9686;48.832;9.126;2024-01-30T07:38:45;99593.28;;;2.72;100.00
19108;BME280;9686;48.832;9.126;2024-01-30T07:41:10;99588.41;;;2.78;100.00
19108;BME280;9686;48.832;9.126;2024-01-30T07:43:36;99585.19;;;2.64;100.00
19108;BME280;9686;48.832;9.126;2024-01-30T07:46:01;99601.81;;;2.71;100.00
19108;BME280;9686;48.832;9.126;2024-01-30T07:48:27;99596.72;;;2.72;100.00
19108;BME280;9686;48.832;9.126;2024-01-30T07:50:53;99602.16;;;2.78;100.00
19108;BME280;9686;48.832;9.126;2024-01-30T07:53:18;99598.50;;;2.91;100.00
19108;BME280;9686;48.832;9.126;2024-01-30T07:55:44;99592.06;;;2.83;100.00
19108;BME280;9686;48.832;9.126;2024-01-30T07:58:12;99592.47;;;2.91;100.00
19108;BME280;9686;48.832;9.126;2024-01-30T08:00:37;99605.88;;;3.03;100.00
19108;BME280;9686;48.832;9.126;2024-01-30T08:03:03;99595.84;;;3.09;100.00
19108;BME280;9686;48.832;9.126;2024-01-30T08:05:28;99598.53;;;3.30;100.00
19108;BME280;9686;48.832;9.126;2024-01-30T08:07:54;99597.25;;;3.39;100.00
19108;BME280;9686;48.832;9.126;2024-01-30T08:10:20;99593.59;;;3.54;100.00
19108;BME280;9686;48.832;9.126;2024-01-30T08:12:45;99597.19;;;3.57;100.00
19108;BME280;9686;48.832;9.126;2024-01-30T08:15:11;99594.59;;;3.77;100.00
19108;BME280;9686;48.832;9.126;2024-01-30T08:17:37;99592.47;;;3.87;100.00
19108;BME280;9686;48.832;9.126;2024-01-30T08:20:03;99588.72;;;4.00;100.00
19108;BME280;9686;48.832;9.126;2024-01-30T08:22:30;99582.94;;;4.26;100.00
19108;BME280;9686;48.832;9.126;2024-01-30T08:24:55;99583.00;;;4.49;100.00
19108;BME280;9686;48.832;9.126;2024-01-30T08:27:20;99581.00;;;4.64;100.00
19108;BME280;9686;48.832;9.126;2024-01-30T08:29:45;99579.03;;;4.79;100.00
19108;BME280;9686;48.832;9.126;2024-01-30T08:32:11;99583.78;;;4.91;100.00
19108;BME280;9686;48.832;9.126;2024-01-30T08:34:36;99583.13;;;5.19;100.00
19108;BME280;9686;48.832;9.126;2024-01-30T08:37:02;99586.72;;;5.22;100.00
19108;BME280;9686;48.832;9.126;2024-01-30T08:39:28;99575.06;;;5.34;100.00
19108;BME280;9686;48.832;9.126;2024-01-30T08:41:53;99587.28;;;5.38;100.00
19108;BME280;9686;48.832;9.126;2024-01-30T08:44:19;99570.56;;;5.52;100.00
19108;BME280;9686;48.832;9.126;2024-01-30T08:46:44;99576.22;;;5.66;100.00
19108;BME280;9686;48.832;9.126;2024-01-30T08:49:16;99572.47;;;5.81;100.00
19108;BME280;9686;48.832;9.126;2024-01-30T08:51:41;99574.28;;;5.84;100.00
19108;BME280;9686;48.832;9.126;2024-01-30T08:54:07;99583.38;;;5.97;100.00
19108;BME280;9686;48.832;9.126;2024-01-30T08:56:32;99575.66;;;5.98;100.00
19108;BME280;9686;48.832;9.126;2024-01-30T08:58:58;99580.22;;;6.05;100.00
19108;BME280;9686;48.832;9.126;2024-01-30T09:01:23;99581.22;;;6.09;100.00
19108;BME280;9686;48.832;9.126;2024-01-30T09:03:49;99589.94;;;6.12;100.00
19108;BME280;9686;48.832;9.126;2024-01-30T09:06:15;99582.47;;;6.22;100.00
19108;BME280;9686;48.832;9.126;2024-01-30T09:08:40;99586.41;;;6.36;100.00
19108;BME280;9686;48.832;9.126;2024-01-30T09:11:12;99589.34;;;6.46;100.00
19108;BME280;9686;48.832;9.126;2024-01-30T09:13:38;99589.19;;;6.42;100.00
19108;BME280;9686;48.832;9.126;2024-01-30T09:16:04;99589.72;;;6.57;100.00
19108;BME280;9686;48.832;9.126;2024-01-30T09:18:29;99594.47;;;6.72;100.00
19108;BME280;9686;48.832;9.126;2024-01-30T09:20:55;99598.00;;;6.74;100.00
19108;BME280;9686;48.832;9.126;2024-01-30T09:23:20;99591.31;;;6.80;100.00
19108;BME280;9686;48.832;9.126;2024-01-30T09:25:45;99596.88;;;6.93;100.00
19108;BME280;9686;48.832;9.126;2024-01-30T09:28:11;99605.72;;;6.99;100.00
19108;BME280;9686;48.832;9.126;2024-01-30T09:30:36;99599.50;;;7.23;100.00
19108;BME280;9686;48.832;9.126;2024-01-30T09:33:01;99600.59;;;7.29;100.00
19108;BME280;9686;48.832;9.126;2024-01-30T09:35:26;99606.13;;;7.41;100.00
19108;BME280;9686;48.832;9.126;2024-01-30T09:37:52;99601.75;;;7.70;100.00
19108;BME280;9686;48.832;9.126;2024-01-30T09:40:18;99599.03;;;7.66;100.00
19108;BME280;9686;48.832;9.126;2024-01-30T09:42:46;99594.31;;;7.83;100.00
19108;BME280;9686;48.832;9.126;2024-01-30T09:45:14;99594.16;;;7.78;100.00
19108;BME280;9686;48.832;9.126;2024-01-30T09:47:43;99590.03;;;7.85;100.00
19108;BME280;9686;48.832;9.126;2024-01-30T09:50:10;99583.78;;;8.10;100.00
19108;BME280;9686;48.832;9.126;2024-01-30T09:52:35;99593.38;;;8.12;100.00
19108;BME280;9686;48.832;9.126;2024-01-30T09:55:01;99596.97;;;8.17;100.00
19108;BME280;9686;48.832;9.126;2024-01-30T09:57:27;99603.38;;;8.31;100.00
19108;BME280;9686;48.832;9.126;2024-01-30T09:59:53;99594.84;;;8.34;100.00
19108;BME280;9686;48.832;9.126;2024-01-30T10:02:19;99591.41;;;8.35;100.00
19108;BME280;9686;48.832;9.126;2024-01-30T10:04:47;99598.38;;;8.38;100.00
19108;BME280;9686;48.832;9.126;2024-01-30T10:07:13;99601.19;;;8.47;100.00
19108;BME280;9686;48.832;9.126;2024-01-30T10:09:39;99597.09;;;8.56;100.00
19108;BME280;9686;48.832;9.126;2024-01-30T10:12:05;99596.69;;;8.76;100.00
19108;BME280;9686;48.832;9.126;2024-01-30T10:14:31;99594.88;;;8.72;100.00
19108;BME280;9686;48.832;9.126;2024-01-30T10:16:57;99585.56;;;8.81;100.00
19108;BME280;9686;48.832;9.126;2024-01-30T10:19:22;99595.31;;;8.90;100.00
19108;BME280;9686;48.832;9.126;2024-01-30T10:21:48;99601.59;;;9.00;100.00
19108;BME280;9686;48.832;9.126;2024-01-30T10:24:13;99596.31;;;8.96;100.00
19108;BME280;9686;48.832;9.126;2024-01-30T10:26:39;99590.75;;;9.19;100.00
19108;BME280;9686;48.832;9.126;2024-01-30T10:29:05;99589.13;;;9.24;100.00
19108;BME280;9686;48.832;9.126;2024-01-30T10:31:30;99593.44;;;9.23;100.00
19108;BME280;9686;48.832;9.126;2024-01-30T10:33:56;99585.00;;;9.35;100.00
19108;BME280;9686;48.832;9.126;2024-01-30T10:36:28;99579.34;;;9.54;100.00
19108;BME280;9686;48.832;9.126;2024-01-30T10:38:55;99583.53;;;9.46;100.00
19108;BME280;9686;48.832;9.126;2024-01-30T10:41:26;99572.47;;;9.58;100.00
19108;BME280;9686;48.832;9.126;2024-01-30T10:44:02;99568.25;;;9.63;100.00
19108;BME280;9686;48.832;9.126;2024-01-30T10:46:33;99572.63;;;9.64;100.00
19108;BME280;9686;48.832;9.126;2024-01-30T10:49:00;99570.16;;;9.72;100.00
19108;BME280;9686;48.832;9.126;2024-01-30T10:51:26;99566.78;;;9.77;100.00
19108;BME280;9686;48.832;9.126;2024-01-30T10:53:52;99562.53;;;9.82;100.00
19108;BME280;9686;48.832;9.126;2024-01-30T10:56:21;99566.00;;;9.83;100.00
19108;BME280;9686;48.832;9.126;2024-01-30T10:58:48;99555.88;;;9.97;100.00
19108;BME280;9686;48.832;9.126;2024-01-30T11:01:14;99558.72;;;10.12;100.00
19108;BME280;9686;48.832;9.126;2024-01-30T11:03:40;99560.59;;;10.17;100.00
19108;BME280;9686;48.832;9.126;2024-01-30T11:06:10;99556.44;;;10.27;100.00
19108;BME280;9686;48.832;9.126;2024-01-30T11:08:36;99556.69;;;10.42;100.00
19108;BME280;9686;48.832;9.126;2024-01-30T11:11:01;99560.94;;;10.39;100.00
19108;BME280;9686;48.832;9.126;2024-01-30T11:13:29;99568.63;;;10.30;100.00
19108;BME280;9686;48.832;9.126;2024-01-30T11:15:54;99560.91;;;10.36;100.00
19108;BME280;9686;48.832;9.126;2024-01-30T11:18:26;99556.41;;;10.26;100.00
19108;BME280;9686;48.832;9.126;2024-01-30T11:20:56;99560.00;;;10.34;100.00
19108;BME280;9686;48.832;9.126;2024-01-30T11:23:22;99555.16;;;10.55;100.00
19108;BME280;9686;48.832;9.126;2024-01-30T11:25:47;99558.59;;;10.53;100.00
19108;BME280;9686;48.832;9.126;2024-01-30T11:28:14;99559.34;;;10.45;100.00
19108;BME280;9686;48.832;9.126;2024-01-30T11:30:40;99550.75;;;10.51;100.00
19108;BME280;9686;48.832;9.126;2024-01-30T11:33:11;99550.81;;;10.57;100.00
19108;BME280;9686;48.832;9.126;2024-01-30T11:35:41;99550.03;;;10.63;100.00
19108;BME280;9686;48.832;9.126;2024-01-30T11:38:08;99542.34;;;10.70;100.00
19108;BME280;9686;48.832;9.126;2024-01-30T11:40:35;99550.25;;;10.75;100.00
19108;BME280;9686;48.832;9.126;2024-01-30T11:43:02;99545.84;;;10.72;100.00
19108;BME280;9686;48.832;9.126;2024-01-30T11:45:28;99547.75;;;10.84;100.00
19108;BME280;9686;48.832;9.126;2024-01-30T11:47:54;99541.75;;;10.90;100.00
19108;BME280;9686;48.832;9.126;2024-01-30T11:50:20;99540.13;;;10.96;100.00
19108;BME280;9686;48.832;9.126;2024-01-30T11:52:45;99536.75;;;11.06;100.00
19108;BME280;9686;48.832;9.126;2024-01-30T11:55:11;99526.53;;;11.20;98.41
19108;BME280;9686;48.832;9.126;2024-01-30T11:57:37;99536.25;;;11.35;97.81
19108;BME280;9686;48.832;9.126;2024-01-30T12:00:06;99530.22;;;11.39;95.94
19108;BME280;9686;48.832;9.126;2024-01-30T12:02:39;99523.31;;;11.44;94.52
19108;BME280;9686;48.832;9.126;2024-01-30T12:05:08;99524.22;;;11.46;96.29
19108;BME280;9686;48.832;9.126;2024-01-30T12:07:34;99516.44;;;11.51;100.00
19108;BME280;9686;48.832;9.126;2024-01-30T12:10:00;99518.22;;;11.53;98.19
19108;BME280;9686;48.832;9.126;2024-01-30T12:12:26;99516.59;;;11.66;98.52
19108;BME280;9686;48.832;9.126;2024-01-30T12:14:52;99508.88;;;11.75;94.46
19108;BME280;9686;48.832;9.126;2024-01-30T12:17:27;99511.50;;;11.77;95.09
19108;BME280;9686;48.832;9.126;2024-01-30T12:20:05;99509.81;;;11.80;97.88
19108;BME280;9686;48.832;9.126;2024-01-30T12:22:36;99507.31;;;11.94;95.34
19108;BME280;9686;48.832;9.126;2024-01-30T12:25:05;99496.09;;;12.01;93.23
19108;BME280;9686;48.832;9.126;2024-01-30T12:27:30;99498.72;;;12.06;91.86
19108;BME280;9686;48.832;9.126;2024-01-30T12:29:58;99500.47;;;12.03;93.54
19108;BME280;9686;48.832;9.126;2024-01-30T12:32:24;99495.22;;;12.02;93.39
19108;BME280;9686;48.832;9.126;2024-01-30T12:34:49;99496.13;;;12.07;90.27
19108;BME280;9686;48.832;9.126;2024-01-30T12:37:15;99497.03;;;12.12;88.25
19108;BME280;9686;48.832;9.126;2024-01-30T12:39:45;99497.03;;;12.11;92.89
19108;BME280;9686;48.832;9.126;2024-01-30T12:42:10;99488.38;;;12.18;92.42
19108;BME280;9686;48.832;9.126;2024-01-30T12:44:36;99482.34;;;12.26;89.58
19108;BME280;9686;48.832;9.126;2024-01-30T12:47:03;99488.50;;;12.34;88.83
19108;BME280;9686;48.832;9.126;2024-01-30T12:49:28;99492.03;;;12.41;90.68
19108;BME280;9686;48.832;9.126;2024-01-30T12:51:54;99492.94;;;12.45;89.26
19108;BME280;9686;48.832;9.126;2024-01-30T12:54:19;99492.06;;;12.46;88.65
19108;BME280;9686;48.832;9.126;2024-01-30T12:56:44;99488.66;;;12.56;88.00
19108;BME280;9686;48.832;9.126;2024-01-30T12:59:10;99500.06;;;12.67;84.32
19108;BME280;9686;48.832;9.126;2024-01-30T13:01:35;99497.44;;;12.69;84.30
19108;BME280;9686;48.832;9.126;2024-01-30T13:04:01;99495.78;;;12.77;84.92